sensor_id;sensor_type;location;lat;lon;timestamp;temperature;humidity
36790;DHT22;22740;52.182;8.780;2022-10-16T00:04:27;13.80;99.90
36790;DHT22;22740;52.182;8.780;2022-10-16T00:10:29;13.80;99.90
36790;DHT22;22740;52.182;8.780;2022-10-16T00:16:31;13.80;99.90
36790;DHT22;22740;52.182;8.780;2022-10-16T00:22:34;13.80;99.90
36790;DHT22;22740;52.182;8.780;2022-10-16T00:28:36;13.80;99.90
36790;DHT22;22740;52.182;8.780;2022-10-16T00:34:38;13.70;99.90
36790;DHT22;22740;52.182;8.780;2022-10-16T00:40:40;13.70;99.90
36790;DHT22;22740;52.182;8.780;2022-10-16T00:46:42;13.70;99.90
36790;DHT22;22740;52.182;8.780;2022-10-16T00:52:44;13.70;99.90
36790;DHT22;22740;52.182;8.780;2022-10-16T00:58:47;13.70;99.90
36790;DHT22;22740;52.182;8.780;2022-10-16T01:04:50;13.70;99.90
36790;DHT22;22740;52.182;8.780;2022-10-16T01:11:01;13.70;99.90
36790;DHT22;22740;52.182;8.780;2022-10-16T01:17:18;13.60;99.90
36790;DHT22;22740;52.182;8.780;2022-10-16T01:23:36;13.60;99.90
36790;DHT22;22740;52.182;8.780;2022-10-16T01:29:44;13.60;99.90
36790;DHT22;22740;52.182;8.780;2022-10-16T01:35:52;13.50;99.90
36790;DHT22;22740;52.182;8.780;2022-10-16T01:41:55;13.50;99.90
36790;DHT22;22740;52.182;8.780;2022-10-16T01:47:59;13.50;99.90
36790;DHT22;22740;52.182;8.780;2022-10-16T01:54:02;13.50;99.90
36790;DHT22;22740;52.182;8.780;2022-10-16T02:00:07;13.50;99.90
36790;DHT22;22740;52.182;8.780;2022-10-16T02:06:10;13.50;99.90
36790;DHT22;22740;52.182;8.780;2022-10-16T02:12:31;13.50;99.90
36790;DHT22;22740;52.182;8.780;2022-10-16T02:18:34;13.40;99.90
36790;DHT22;22740;52.182;8.780;2022-10-16T02:24:43;13.40;99.90
36790;DHT22;22740;52.182;8.780;2022-10-16T02:30:48;13.30;99.90
36790;DHT22;22740;52.182;8.780;2022-10-16T02:36:51;13.20;99.90
36790;DHT22;22740;52.182;8.780;2022-10-16T02:42:54;13.10;99.90
36790;DHT22;22740;52.182;8.780;2022-10-16T02:48:56;13.00;99.90
36790;DHT22;22740;52.182;8.780;2022-10-16T02:54:58;12.90;99.90
36790;DHT22;22740;52.182;8.780;2022-10-16T03:01:01;12.90;99.90
36790;DHT22;22740;52.182;8.780;2022-10-16T03:07:03;12.80;99.90
36790;DHT22;22740;52.182;8.780;2022-10-16T03:13:05;12.80;99.90
36790;DHT22;22740;52.182;8.780;2022-10-16T03:19:06;12.80;99.90
36790;DHT22;22740;52.182;8.780;2022-10-16T03:25:08;12.90;99.90
36790;DHT22;22740;52.182;8.780;2022-10-16T03:31:10;13.00;99.90
36790;DHT22;22740;52.182;8.780;2022-10-16T03:37:12;13.00;99.90
36790;DHT22;22740;52.182;8.780;2022-10-16T03:43:14;13.00;99.90
36790;DHT22;22740;52.182;8.780;2022-10-16T03:49:20;13.00;99.90
36790;DHT22;22740;52.182;8.780;2022-10-16T03:55:22;13.00;99.90
36790;DHT22;22740;52.182;8.780;2022-10-16T04:01:24;13.00;99.90
36790;DHT22;22740;52.182;8.780;2022-10-16T04:07:25;13.00;99.90
36790;DHT22;22740;52.182;8.780;2022-10-16T04:13:28;13.00;99.90
36790;DHT22;22740;52.182;8.780;2022-10-16T04:19:30;13.00;99.90
36790;DHT22;22740;52.182;8.780;2022-10-16T04:25:31;13.00;99.90
36790;DHT22;22740;52.182;8.780;2022-10-16T04:31:33;13.10;99.90
36790;DHT22;22740;52.182;8.780;2022-10-16T04:37:35;13.10;99.90
36790;DHT22;22740;52.182;8.780;2022-10-16T04:43:37;13.10;99.90
36790;DHT22;22740;52.182;8.780;2022-10-16T04:49:38;13.10;99.90
36790;DHT22;22740;52.182;8.780;2022-10-16T04:55:41;13.10;99.90
36790;DHT22;22740;52.182;8.780;2022-10-16T05:01:46;13.30;99.90
36790;DHT22;22740;52.182;8.780;2022-10-16T05:07:48;13.40;99.90
36790;DHT22;22740;52.182;8.780;2022-10-16T05:13:51;13.40;99.90
36790;DHT22;22740;52.182;8.780;2022-10-16T05:19:56;13.40;99.90
36790;DHT22;22740;52.182;8.780;2022-10-16T05:25:58;13.40;99.90
36790;DHT22;22740;52.182;8.780;2022-10-16T05:32:00;13.40;99.90
36790;DHT22;22740;52.182;8.780;2022-10-16T05:38:02;13.50;99.90
36790;DHT22;22740;52.182;8.780;2022-10-16T05:44:05;13.40;99.90
36790;DHT22;22740;52.182;8.780;2022-10-16T05:50:07;13.30;99.90
36790;DHT22;22740;52.182;8.780;2022-10-16T05:56:10;13.30;99.90
36790;DHT22;22740;52.182;8.780;2022-10-16T06:02:13;13.30;99.90
36790;DHT22;22740;52.182;8.780;2022-10-16T06:08:15;13.20;99.90
36790;DHT22;22740;52.182;8.780;2022-10-16T06:14:17;13.40;99.90
36790;DHT22;22740;52.182;8.780;2022-10-16T06:20:18;13.40;99.90
36790;DHT22;22740;52.182;8.780;2022-10-16T06:26:22;13.40;99.90
36790;DHT22;22740;52.182;8.780;2022-10-16T06:32:24;13.50;99.90
36790;DHT22;22740;52.182;8.780;2022-10-16T06:38:26;13.50;99.90
36790;DHT22;22740;52.182;8.780;2022-10-16T06:44:27;13.60;99.90
36790;DHT22;22740;52.182;8.780;2022-10-16T06:50:29;13.70;99.90
36790;DHT22;22740;52.182;8.780;2022-10-16T06:56:31;13.70;99.90
36790;DHT22;22740;52.182;8.780;2022-10-16T07:02:34;13.80;99.90
36790;DHT22;22740;52.182;8.780;2022-10-16T07:08:36;13.90;99.90
36790;DHT22;22740;52.182;8.780;2022-10-16T07:14:38;13.90;99.90
36790;DHT22;22740;52.182;8.780;2022-10-16T07:20:40;14.10;99.90
36790;DHT22;22740;52.182;8.780;2022-10-16T07:26:42;14.30;99.90
36790;DHT22;22740;52.182;8.780;2022-10-16T07:32:45;14.40;99.90
36790;DHT22;22740;52.182;8.780;2022-10-16T07:38:46;14.60;99.90
36790;DHT22;22740;52.182;8.780;2022-10-16T07:44:48;14.70;99.90
36790;DHT22;22740;52.182;8.780;2022-10-16T07:50:50;14.80;99.90
36790;DHT22;22740;52.182;8.780;2022-10-16T07:56:52;14.90;99.90
36790;DHT22;22740;52.182;8.780;2022-10-16T08:02:54;15.00;99.90
36790;DHT22;22740;52.182;8.780;2022-10-16T08:08:56;14.80;99.90
36790;DHT22;22740;52.182;8.780;2022-10-16T08:14:57;14.80;99.90
36790;DHT22;22740;52.182;8.780;2022-10-16T08:20:59;15.00;99.90
36790;DHT22;22740;52.182;8.780;2022-10-16T08:27:01;15.20;99.90
36790;DHT22;22740;52.182;8.780;2022-10-16T08:33:03;15.30;99.90
36790;DHT22;22740;52.182;8.780;2022-10-16T08:39:05;15.30;99.90
36790;DHT22;22740;52.182;8.780;2022-10-16T08:45:11;15.40;99.90
36790;DHT22;22740;52.182;8.780;2022-10-16T08:51:34;15.50;99.90
36790;DHT22;22740;52.182;8.780;2022-10-16T08:57:40;15.60;99.90
36790;DHT22;22740;52.182;8.780;2022-10-16T09:22:21;16.10;99.90
36790;DHT22;22740;52.182;8.780;2022-10-16T09:28:24;16.20;99.90
36790;DHT22;22740;52.182;8.780;2022-10-16T09:34:30;16.40;99.90
36790;DHT22;22740;52.182;8.780;2022-10-16T09:40:34;16.40;99.90
36790;DHT22;22740;52.182;8.780;2022-10-16T09:46:36;16.50;99.90
36790;DHT22;22740;52.182;8.780;2022-10-16T09:52:39;16.30;99.90
36790;DHT22;22740;52.182;8.780;2022-10-16T09:58:49;16.50;99.90
36790;DHT22;22740;52.182;8.780;2022-10-16T10:04:51;16.90;99.90
36790;DHT22;22740;52.182;8.780;2022-10-16T10:10:55;16.80;99.90
36790;DHT22;22740;52.182;8.780;2022-10-16T10:35:36;17.50;99.90
36790;DHT22;22740;52.182;8.780;2022-10-16T10:53:55;17.50;99.90
36790;DHT22;22740;52.182;8.780;2022-10-16T11:06:12;17.60;99.90
36790;DHT22;22740;52.182;8.780;2022-10-16T11:12:25;17.70;99.90
36790;DHT22;22740;52.182;8.780;2022-10-16T11:24:40;17.60;99.90
36790;DHT22;22740;52.182;8.780;2022-10-16T11:36:53;18.30;99.90
36790;DHT22;22740;52.182;8.780;2022-10-16T11:43:02;18.90;99.90
36790;DHT22;22740;52.182;8.780;2022-10-16T11:49:10;18.90;99.90
36790;DHT22;22740;52.182;8.780;2022-10-16T11:55:14;18.60;99.90
36790;DHT22;22740;52.182;8.780;2022-10-16T12:01:18;18.70;99.90
36790;DHT22;22740;52.182;8.780;2022-10-16T12:07:27;18.90;99.90
36790;DHT22;22740;52.182;8.780;2022-10-16T12:13:34;19.00;99.90
36790;DHT22;22740;52.182;8.780;2022-10-16T12:19:37;19.10;99.90
36790;DHT22;22740;52.182;8.780;2022-10-16T12:25:39;19.20;99.90
36790;DHT22;22740;52.182;8.780;2022-10-16T12:31:48;19.30;99.90
36790;DHT22;22740;52.182;8.780;2022-10-16T12:38:06;19.30;99.90
36790;DHT22;22740;52.182;8.780;2022-10-16T12:44:24;19.40;99.90
36790;DHT22;22740;52.182;8.780;2022-10-16T12:50:32;19.20;99.90
36790;DHT22;22740;52.182;8.780;2022-10-16T13:21:48;18.40;99.90
36790;DHT22;22740;52.182;8.780;2022-10-16T13:27:53;18.00;99.90
36790;DHT22;22740;52.182;8.780;2022-10-16T13:33:56;18.10;99.90
36790;DHT22;22740;52.182;8.780;2022-10-16T13:40:09;18.20;99.90
36790;DHT22;22740;52.182;8.780;2022-10-16T13:46:14;17.90;99.90
36790;DHT22;22740;52.182;8.780;2022-10-16T13:52:18;17.60;99.90
36790;DHT22;22740;52.182;8.780;2022-10-16T13:58:20;17.60;99.90
36790;DHT22;22740;52.182;8.780;2022-10-16T14:04:21;17.70;99.90
36790;DHT22;22740;52.182;8.780;2022-10-16T14:10:30;17.80;99.90
36790;DHT22;22740;52.182;8.780;2022-10-16T14:16:32;17.70;99.90
36790;DHT22;22740;52.182;8.780;2022-10-16T14:28:37;17.70;99.90
36790;DHT22;22740;52.182;8.780;2022-10-16T14:34:39;17.70;99.90
36790;DHT22;22740;52.182;8.780;2022-10-16T14:40:45;17.70;99.90
36790;DHT22;22740;52.182;8.780;2022-10-16T14:46:48;17.70;99.90
36790;DHT22;22740;52.182;8.780;2022-10-16T14:52:50;17.70;99.90
36790;DHT22;22740;52.182;8.780;2022-10-16T14:58:52;17.60;99.90
36790;DHT22;22740;52.182;8.780;2022-10-16T15:04:54;17.60;99.90
36790;DHT22;22740;52.182;8.780;2022-10-16T15:10:56;17.40;99.90
36790;DHT22;22740;52.182;8.780;2022-10-16T15:16:58;17.20;99.90
36790;DHT22;22740;52.182;8.780;2022-10-16T15:23:04;17.10;99.90
36790;DHT22;22740;52.182;8.780;2022-10-16T15:29:06;17.20;99.90
36790;DHT22;22740;52.182;8.780;2022-10-16T15:35:08;17.10;99.90
36790;DHT22;22740;52.182;8.780;2022-10-16T15:41:10;17.10;99.90
36790;DHT22;22740;52.182;8.780;2022-10-16T15:47:12;17.10;99.90
36790;DHT22;22740;52.182;8.780;2022-10-16T15:53:14;16.90;99.90
36790;DHT22;22740;52.182;8.780;2022-10-16T15:59:16;16.70;99.90
36790;DHT22;22740;52.182;8.780;2022-10-16T16:05:18;16.50;99.90
36790;DHT22;22740;52.182;8.780;2022-10-16T16:11:20;16.40;99.90
36790;DHT22;22740;52.182;8.780;2022-10-16T16:17:22;16.10;99.90
36790;DHT22;22740;52.182;8.780;2022-10-16T16:23:24;15.90;99.90
36790;DHT22;22740;52.182;8.780;2022-10-16T16:29:26;15.80;99.90
36790;DHT22;22740;52.182;8.780;2022-10-16T16:35:27;15.70;99.90
36790;DHT22;22740;52.182;8.780;2022-10-16T16:41:29;15.60;99.90
36790;DHT22;22740;52.182;8.780;2022-10-16T16:47:31;15.50;99.90
36790;DHT22;22740;52.182;8.780;2022-10-16T16:53:35;15.30;99.90
36790;DHT22;22740;52.182;8.780;2022-10-16T16:59:36;15.20;99.90
36790;DHT22;22740;52.182;8.780;2022-10-16T17:05:38;15.20;99.90
36790;DHT22;22740;52.182;8.780;2022-10-16T17:11:40;15.10;99.90
36790;DHT22;22740;52.182;8.780;2022-10-16T17:17:46;15.10;99.90
36790;DHT22;22740;52.182;8.780;2022-10-16T17:23:50;15.20;99.90
36790;DHT22;22740;52.182;8.780;2022-10-16T17:29:52;15.20;99.90
36790;DHT22;22740;52.182;8.780;2022-10-16T17:35:54;15.20;99.90
36790;DHT22;22740;52.182;8.780;2022-10-16T17:41:56;15.10;99.90
36790;DHT22;22740;52.182;8.780;2022-10-16T17:47:58;15.00;99.90
36790;DHT22;22740;52.182;8.780;2022-10-16T17:54:00;14.80;99.90
36790;DHT22;22740;52.182;8.780;2022-10-16T18:00:05;15.00;99.90
36790;DHT22;22740;52.182;8.780;2022-10-16T18:06:07;14.90;99.90
36790;DHT22;22740;52.182;8.780;2022-10-16T18:12:09;14.70;99.90
36790;DHT22;22740;52.182;8.780;2022-10-16T18:18:11;14.80;99.90
36790;DHT22;22740;52.182;8.780;2022-10-16T18:24:13;14.70;99.90
36790;DHT22;22740;52.182;8.780;2022-10-16T18:30:15;14.60;99.90
36790;DHT22;22740;52.182;8.780;2022-10-16T18:36:19;14.50;99.90
36790;DHT22;22740;52.182;8.780;2022-10-16T18:42:21;14.50;99.90
36790;DHT22;22740;52.182;8.780;2022-10-16T18:48:23;14.70;99.90
36790;DHT22;22740;52.182;8.780;2022-10-16T18:54:25;14.70;99.90
36790;DHT22;22740;52.182;8.780;2022-10-16T19:00:27;14.60;99.90
36790;DHT22;22740;52.182;8.780;2022-10-16T19:06:29;14.50;99.90
36790;DHT22;22740;52.182;8.780;2022-10-16T19:12:35;14.60;99.90
36790;DHT22;22740;52.182;8.780;2022-10-16T19:18:36;14.50;99.90
36790;DHT22;22740;52.182;8.780;2022-10-16T19:24:39;14.50;99.90
36790;DHT22;22740;52.182;8.780;2022-10-16T19:30:41;14.40;99.90
36790;DHT22;22740;52.182;8.780;2022-10-16T19:36:46;14.30;99.90
36790;DHT22;22740;52.182;8.780;2022-10-16T19:42:50;14.50;99.90
36790;DHT22;22740;52.182;8.780;2022-10-16T19:48:56;14.60;99.90
36790;DHT22;22740;52.182;8.780;2022-10-16T19:54:58;14.60;99.90
36790;DHT22;22740;52.182;8.780;2022-10-16T20:01:00;14.60;99.90
36790;DHT22;22740;52.182;8.780;2022-10-16T20:07:02;14.60;99.90
36790;DHT22;22740;52.182;8.780;2022-10-16T20:13:03;14.70;99.90
36790;DHT22;22740;52.182;8.780;2022-10-16T20:19:05;14.70;99.90
36790;DHT22;22740;52.182;8.780;2022-10-16T20:25:07;14.70;99.90
36790;DHT22;22740;52.182;8.780;2022-10-16T20:31:17;14.80;99.90
36790;DHT22;22740;52.182;8.780;2022-10-16T20:37:23;14.80;99.90
36790;DHT22;22740;52.182;8.780;2022-10-16T20:43:26;14.70;99.90
36790;DHT22;22740;52.182;8.780;2022-10-16T20:49:28;14.60;99.90
36790;DHT22;22740;52.182;8.780;2022-10-16T20:55:41;14.60;99.90
36790;DHT22;22740;52.182;8.780;2022-10-16T21:01:43;14.50;99.90
36790;DHT22;22740;52.182;8.780;2022-10-16T21:07:45;14.60;99.90
36790;DHT22;22740;52.182;8.780;2022-10-16T21:13:47;14.70;99.90
36790;DHT22;22740;52.182;8.780;2022-10-16T21:19:48;14.70;99.90
36790;DHT22;22740;52.182;8.780;2022-10-16T21:25:50;14.50;99.90
36790;DHT22;22740;52.182;8.780;2022-10-16T21:31:52;14.40;99.90
36790;DHT22;22740;52.182;8.780;2022-10-16T21:37:54;14.30;99.90
36790;DHT22;22740;52.182;8.780;2022-10-16T21:43:56;14.20;99.90
36790;DHT22;22740;52.182;8.780;2022-10-16T21:49:58;14.10;99.90
36790;DHT22;22740;52.182;8.780;2022-10-16T21:56:00;14.10;99.90
36790;DHT22;22740;52.182;8.780;2022-10-16T22:02:02;14.10;99.90
36790;DHT22;22740;52.182;8.780;2022-10-16T22:08:03;14.20;99.90
36790;DHT22;22740;52.182;8.780;2022-10-16T22:14:09;14.10;99.90
36790;DHT22;22740;52.182;8.780;2022-10-16T22:20:11;14.10;99.90
36790;DHT22;22740;52.182;8.780;2022-10-16T22:26:13;14.00;99.90
36790;DHT22;22740;52.182;8.780;2022-10-16T22:32:15;13.90;99.90
36790;DHT22;22740;52.182;8.780;2022-10-16T22:38:17;14.00;99.90
36790;DHT22;22740;52.182;8.780;2022-10-16T22:44:19;13.90;99.90
36790;DHT22;22740;52.182;8.780;2022-10-16T22:50:21;13.90;99.90
36790;DHT22;22740;52.182;8.780;2022-10-16T22:56:24;13.90;99.90
36790;DHT22;22740;52.182;8.780;2022-10-16T23:02:25;13.90;99.90
36790;DHT22;22740;52.182;8.780;2022-10-16T23:08:28;13.90;99.90
36790;DHT22;22740;52.182;8.780;2022-10-16T23:14:30;13.80;99.90
36790;DHT22;22740;52.182;8.780;2022-10-16T23:20:32;13.70;99.90
36790;DHT22;22740;52.182;8.780;2022-10-16T23:26:35;13.80;99.90
36790;DHT22;22740;52.182;8.780;2022-10-16T23:32:36;13.80;99.90
36790;DHT22;22740;52.182;8.780;2022-10-16T23:38:38;14.10;99.90
36790;DHT22;22740;52.182;8.780;2022-10-16T23:44:40;14.50;99.90
36790;DHT22;22740;52.182;8.780;2022-10-16T23:50:42;14.70;99.90
36790;DHT22;22740;52.182;8.780;2022-10-16T23:56:44;14.50;99.90
